sensor_id;sensor_type;location;lat;lon;timestamp;P1;durP1;ratioP1;P2;durP2;ratioP2
17983;SDS011;9117;52.420;20.728;2022-10-26T00:00:50;39.35;;;19.17;;
17983;SDS011;9117;52.420;20.728;2022-10-26T00:03:19;39.55;;;19.55;;
17983;SDS011;9117;52.420;20.728;2022-10-26T00:05:47;38.08;;;19.63;;
17983;SDS011;9117;52.420;20.728;2022-10-26T00:08:15;39.65;;;19.45;;
17983;SDS011;9117;52.420;20.728;2022-10-26T00:10:43;37.00;;;19.63;;
17983;SDS011;9117;52.420;20.728;2022-10-26T00:13:11;40.42;;;20.15;;
17983;SDS011;9117;52.420;20.728;2022-10-26T00:15:40;43.47;;;20.88;;
17983;SDS011;9117;52.420;20.728;2022-10-26T00:18:08;41.92;;;21.88;;
17983;SDS011;9117;52.420;20.728;2022-10-26T00:20:37;44.00;;;20.98;;
17983;SDS011;9117;52.420;20.728;2022-10-26T00:23:05;42.42;;;21.77;;
17983;SDS011;9117;52.420;20.728;2022-10-26T00:25:34;40.30;;;20.65;;
17983;SDS011;9117;52.420;20.728;2022-10-26T00:28:02;48.80;;;21.40;;
17983;SDS011;9117;52.420;20.728;2022-10-26T00:30:30;44.38;;;22.80;;
17983;SDS011;9117;52.420;20.728;2022-10-26T00:32:58;53.95;;;22.52;;
17983;SDS011;9117;52.420;20.728;2022-10-26T00:35:26;45.97;;;21.92;;
17983;SDS011;9117;52.420;20.728;2022-10-26T00:38:12;51.38;;;22.75;;
17983;SDS011;9117;52.420;20.728;2022-10-26T00:40:40;50.72;;;22.88;;
17983;SDS011;9117;52.420;20.728;2022-10-26T00:43:13;48.15;;;22.85;;
17983;SDS011;9117;52.420;20.728;2022-10-26T00:45:43;41.05;;;22.02;;
17983;SDS011;9117;52.420;20.728;2022-10-26T00:48:13;44.03;;;22.58;;
17983;SDS011;9117;52.420;20.728;2022-10-26T00:50:45;46.95;;;23.48;;
17983;SDS011;9117;52.420;20.728;2022-10-26T00:53:16;42.13;;;21.45;;
17983;SDS011;9117;52.420;20.728;2022-10-26T00:55:45;44.05;;;22.67;;
17983;SDS011;9117;52.420;20.728;2022-10-26T00:58:16;44.65;;;22.10;;
17983;SDS011;9117;52.420;20.728;2022-10-26T01:00:45;49.00;;;22.85;;
17983;SDS011;9117;52.420;20.728;2022-10-26T01:03:13;54.78;;;24.55;;
17983;SDS011;9117;52.420;20.728;2022-10-26T01:05:44;46.03;;;23.08;;
17983;SDS011;9117;52.420;20.728;2022-10-26T01:08:13;47.53;;;23.63;;
17983;SDS011;9117;52.420;20.728;2022-10-26T01:10:44;48.23;;;23.20;;
17983;SDS011;9117;52.420;20.728;2022-10-26T01:13:13;45.42;;;23.35;;
17983;SDS011;9117;52.420;20.728;2022-10-26T01:15:45;47.50;;;23.70;;
17983;SDS011;9117;52.420;20.728;2022-10-26T01:18:19;53.50;;;23.50;;
17983;SDS011;9117;52.420;20.728;2022-10-26T01:24:15;48.60;;;23.38;;
17983;SDS011;9117;52.420;20.728;2022-10-26T01:26:52;50.80;;;23.52;;
17983;SDS011;9117;52.420;20.728;2022-10-26T01:29:40;51.05;;;23.38;;
17983;SDS011;9117;52.420;20.728;2022-10-26T01:32:21;61.83;;;23.50;;
17983;SDS011;9117;52.420;20.728;2022-10-26T01:34:54;48.17;;;23.65;;
17983;SDS011;9117;52.420;20.728;2022-10-26T01:37:29;56.40;;;24.15;;
17983;SDS011;9117;52.420;20.728;2022-10-26T01:40:03;49.20;;;23.90;;
17983;SDS011;9117;52.420;20.728;2022-10-26T01:42:36;51.25;;;22.50;;
17983;SDS011;9117;52.420;20.728;2022-10-26T01:45:11;46.30;;;23.25;;
17983;SDS011;9117;52.420;20.728;2022-10-26T01:47:42;46.58;;;22.88;;
17983;SDS011;9117;52.420;20.728;2022-10-26T01:50:12;46.83;;;22.83;;
17983;SDS011;9117;52.420;20.728;2022-10-26T01:52:41;44.53;;;22.95;;
17983;SDS011;9117;52.420;20.728;2022-10-26T01:58:09;48.70;;;22.05;;
17983;SDS011;9117;52.420;20.728;2022-10-26T02:00:50;45.22;;;22.08;;
17983;SDS011;9117;52.420;20.728;2022-10-26T02:03:27;46.42;;;22.65;;
17983;SDS011;9117;52.420;20.728;2022-10-26T02:06:05;47.17;;;22.27;;
17983;SDS011;9117;52.420;20.728;2022-10-26T02:08:49;44.25;;;23.75;;
17983;SDS011;9117;52.420;20.728;2022-10-26T02:11:38;54.13;;;24.30;;
17983;SDS011;9117;52.420;20.728;2022-10-26T02:14:12;45.38;;;21.45;;
17983;SDS011;9117;52.420;20.728;2022-10-26T02:16:49;48.83;;;22.52;;
17983;SDS011;9117;52.420;20.728;2022-10-26T02:19:26;54.60;;;23.73;;
17983;SDS011;9117;52.420;20.728;2022-10-26T02:22:01;46.20;;;23.23;;
17983;SDS011;9117;52.420;20.728;2022-10-26T02:24:36;52.22;;;23.08;;
17983;SDS011;9117;52.420;20.728;2022-10-26T02:27:06;48.63;;;23.55;;
17983;SDS011;9117;52.420;20.728;2022-10-26T02:29:37;50.42;;;24.48;;
17983;SDS011;9117;52.420;20.728;2022-10-26T02:32:07;53.00;;;25.33;;
17983;SDS011;9117;52.420;20.728;2022-10-26T02:34:38;51.65;;;23.58;;
17983;SDS011;9117;52.420;20.728;2022-10-26T02:37:10;55.97;;;24.85;;
17983;SDS011;9117;52.420;20.728;2022-10-26T02:39:40;56.20;;;24.07;;
17983;SDS011;9117;52.420;20.728;2022-10-26T02:42:09;61.63;;;27.20;;
17983;SDS011;9117;52.420;20.728;2022-10-26T02:44:40;55.42;;;24.65;;
17983;SDS011;9117;52.420;20.728;2022-10-26T02:47:12;51.00;;;23.90;;
17983;SDS011;9117;52.420;20.728;2022-10-26T02:49:42;65.68;;;25.45;;
17983;SDS011;9117;52.420;20.728;2022-10-26T02:52:11;68.97;;;27.30;;
17983;SDS011;9117;52.420;20.728;2022-10-26T02:54:50;69.72;;;26.42;;
17983;SDS011;9117;52.420;20.728;2022-10-26T02:57:22;62.65;;;27.52;;
17983;SDS011;9117;52.420;20.728;2022-10-26T02:59:53;65.28;;;27.80;;
17983;SDS011;9117;52.420;20.728;2022-10-26T03:02:22;68.55;;;27.67;;
17983;SDS011;9117;52.420;20.728;2022-10-26T03:04:52;67.70;;;26.77;;
17983;SDS011;9117;52.420;20.728;2022-10-26T03:07:22;65.35;;;26.90;;
17983;SDS011;9117;52.420;20.728;2022-10-26T03:09:50;65.93;;;27.13;;
17983;SDS011;9117;52.420;20.728;2022-10-26T03:12:18;60.83;;;23.50;;
17983;SDS011;9117;52.420;20.728;2022-10-26T03:14:46;56.92;;;24.77;;
17983;SDS011;9117;52.420;20.728;2022-10-26T03:17:14;55.70;;;25.88;;
17983;SDS011;9117;52.420;20.728;2022-10-26T03:19:42;61.83;;;26.05;;
17983;SDS011;9117;52.420;20.728;2022-10-26T03:22:11;59.63;;;26.00;;
17983;SDS011;9117;52.420;20.728;2022-10-26T03:24:39;52.67;;;22.33;;
17983;SDS011;9117;52.420;20.728;2022-10-26T03:27:07;53.25;;;23.92;;
17983;SDS011;9117;52.420;20.728;2022-10-26T03:29:35;54.53;;;23.70;;
17983;SDS011;9117;52.420;20.728;2022-10-26T03:32:03;48.65;;;23.05;;
17983;SDS011;9117;52.420;20.728;2022-10-26T03:34:31;51.42;;;23.52;;
17983;SDS011;9117;52.420;20.728;2022-10-26T03:36:59;52.67;;;23.85;;
17983;SDS011;9117;52.420;20.728;2022-10-26T03:39:30;58.72;;;23.75;;
17983;SDS011;9117;52.420;20.728;2022-10-26T03:41:58;50.30;;;22.05;;
17983;SDS011;9117;52.420;20.728;2022-10-26T03:44:26;48.08;;;21.80;;
17983;SDS011;9117;52.420;20.728;2022-10-26T03:46:53;47.17;;;20.42;;
17983;SDS011;9117;52.420;20.728;2022-10-26T03:49:21;44.55;;;20.77;;
17983;SDS011;9117;52.420;20.728;2022-10-26T03:51:49;37.95;;;19.88;;
17983;SDS011;9117;52.420;20.728;2022-10-26T03:54:17;37.38;;;18.85;;
17983;SDS011;9117;52.420;20.728;2022-10-26T03:56:47;38.90;;;18.10;;
17983;SDS011;9117;52.420;20.728;2022-10-26T03:59:20;43.67;;;19.92;;
17983;SDS011;9117;52.420;20.728;2022-10-26T04:01:48;40.92;;;19.08;;
17983;SDS011;9117;52.420;20.728;2022-10-26T04:04:22;38.70;;;17.97;;
17983;SDS011;9117;52.420;20.728;2022-10-26T04:06:50;39.25;;;18.85;;
17983;SDS011;9117;52.420;20.728;2022-10-26T04:09:18;39.05;;;17.38;;
17983;SDS011;9117;52.420;20.728;2022-10-26T04:11:47;41.55;;;19.15;;
17983;SDS011;9117;52.420;20.728;2022-10-26T04:14:15;35.40;;;18.67;;
17983;SDS011;9117;52.420;20.728;2022-10-26T04:16:43;37.88;;;18.92;;
17983;SDS011;9117;52.420;20.728;2022-10-26T04:19:11;43.33;;;19.25;;
17983;SDS011;9117;52.420;20.728;2022-10-26T04:21:39;41.38;;;18.80;;
17983;SDS011;9117;52.420;20.728;2022-10-26T04:24:08;39.25;;;17.95;;
17983;SDS011;9117;52.420;20.728;2022-10-26T04:26:37;42.33;;;19.08;;
17983;SDS011;9117;52.420;20.728;2022-10-26T04:29:06;47.55;;;19.50;;
17983;SDS011;9117;52.420;20.728;2022-10-26T04:31:34;42.90;;;20.40;;
17983;SDS011;9117;52.420;20.728;2022-10-26T04:34:02;50.80;;;20.75;;
17983;SDS011;9117;52.420;20.728;2022-10-26T04:36:30;40.95;;;20.38;;
17983;SDS011;9117;52.420;20.728;2022-10-26T04:38:59;49.20;;;20.20;;
17983;SDS011;9117;52.420;20.728;2022-10-26T04:41:27;52.00;;;22.10;;
17983;SDS011;9117;52.420;20.728;2022-10-26T04:43:55;47.25;;;21.80;;
17983;SDS011;9117;52.420;20.728;2022-10-26T04:46:25;50.92;;;21.15;;
17983;SDS011;9117;52.420;20.728;2022-10-26T04:48:53;45.97;;;22.35;;
17983;SDS011;9117;52.420;20.728;2022-10-26T04:51:21;44.97;;;22.67;;
17983;SDS011;9117;52.420;20.728;2022-10-26T04:53:49;43.08;;;20.92;;
17983;SDS011;9117;52.420;20.728;2022-10-26T04:56:19;42.63;;;20.77;;
17983;SDS011;9117;52.420;20.728;2022-10-26T04:58:47;40.35;;;19.05;;
17983;SDS011;9117;52.420;20.728;2022-10-26T05:01:15;38.50;;;19.23;;
17983;SDS011;9117;52.420;20.728;2022-10-26T05:03:47;43.50;;;19.33;;
17983;SDS011;9117;52.420;20.728;2022-10-26T05:06:15;39.53;;;19.43;;
17983;SDS011;9117;52.420;20.728;2022-10-26T05:08:43;38.80;;;18.73;;
17983;SDS011;9117;52.420;20.728;2022-10-26T05:11:11;44.70;;;19.42;;
17983;SDS011;9117;52.420;20.728;2022-10-26T05:13:40;46.13;;;20.70;;
17983;SDS011;9117;52.420;20.728;2022-10-26T05:16:08;39.45;;;19.63;;
17983;SDS011;9117;52.420;20.728;2022-10-26T05:18:36;43.13;;;19.23;;
17983;SDS011;9117;52.420;20.728;2022-10-26T05:21:05;39.13;;;20.00;;
17983;SDS011;9117;52.420;20.728;2022-10-26T05:23:33;47.13;;;21.00;;
17983;SDS011;9117;52.420;20.728;2022-10-26T05:26:01;47.53;;;20.85;;
17983;SDS011;9117;52.420;20.728;2022-10-26T05:28:29;44.42;;;20.60;;
17983;SDS011;9117;52.420;20.728;2022-10-26T05:30:57;44.45;;;22.05;;
17983;SDS011;9117;52.420;20.728;2022-10-26T05:33:26;43.88;;;21.60;;
17983;SDS011;9117;52.420;20.728;2022-10-26T05:35:54;49.30;;;21.73;;
17983;SDS011;9117;52.420;20.728;2022-10-26T05:38:23;49.57;;;22.03;;
17983;SDS011;9117;52.420;20.728;2022-10-26T05:40:52;41.80;;;21.13;;
17983;SDS011;9117;52.420;20.728;2022-10-26T05:43:21;46.92;;;22.52;;
17983;SDS011;9117;52.420;20.728;2022-10-26T05:45:50;44.30;;;22.10;;
17983;SDS011;9117;52.420;20.728;2022-10-26T05:48:18;46.63;;;22.27;;
17983;SDS011;9117;52.420;20.728;2022-10-26T05:50:46;46.42;;;22.08;;
17983;SDS011;9117;52.420;20.728;2022-10-26T05:53:14;48.35;;;22.80;;
17983;SDS011;9117;52.420;20.728;2022-10-26T05:55:43;47.03;;;23.30;;
17983;SDS011;9117;52.420;20.728;2022-10-26T05:58:12;49.80;;;24.35;;
17983;SDS011;9117;52.420;20.728;2022-10-26T06:00:45;43.22;;;23.98;;
17983;SDS011;9117;52.420;20.728;2022-10-26T06:03:24;50.47;;;24.58;;
17983;SDS011;9117;52.420;20.728;2022-10-26T06:06:02;47.30;;;25.38;;
17983;SDS011;9117;52.420;20.728;2022-10-26T06:08:32;47.65;;;23.52;;
17983;SDS011;9117;52.420;20.728;2022-10-26T06:11:02;46.15;;;22.70;;
17983;SDS011;9117;52.420;20.728;2022-10-26T06:13:32;41.97;;;22.42;;
17983;SDS011;9117;52.420;20.728;2022-10-26T06:16:03;47.03;;;22.17;;
17983;SDS011;9117;52.420;20.728;2022-10-26T06:18:47;46.50;;;23.63;;
17983;SDS011;9117;52.420;20.728;2022-10-26T06:21:30;44.17;;;24.63;;
17983;SDS011;9117;52.420;20.728;2022-10-26T06:24:11;44.50;;;25.10;;
17983;SDS011;9117;52.420;20.728;2022-10-26T06:26:49;58.00;;;25.13;;
17983;SDS011;9117;52.420;20.728;2022-10-26T06:29:27;54.78;;;24.95;;
17983;SDS011;9117;52.420;20.728;2022-10-26T06:32:06;49.92;;;25.73;;
17983;SDS011;9117;52.420;20.728;2022-10-26T06:34:35;50.40;;;23.70;;
17983;SDS011;9117;52.420;20.728;2022-10-26T06:37:09;45.33;;;23.60;;
17983;SDS011;9117;52.420;20.728;2022-10-26T06:39:39;39.28;;;21.35;;
17983;SDS011;9117;52.420;20.728;2022-10-26T06:42:16;40.92;;;22.15;;
17983;SDS011;9117;52.420;20.728;2022-10-26T06:44:46;46.30;;;21.40;;
17983;SDS011;9117;52.420;20.728;2022-10-26T06:47:15;38.53;;;20.17;;
17983;SDS011;9117;52.420;20.728;2022-10-26T06:49:56;38.85;;;19.95;;
17983;SDS011;9117;52.420;20.728;2022-10-26T06:52:30;38.78;;;19.95;;
17983;SDS011;9117;52.420;20.728;2022-10-26T06:55:02;38.10;;;19.47;;
17983;SDS011;9117;52.420;20.728;2022-10-26T06:57:33;47.40;;;21.87;;
17983;SDS011;9117;52.420;20.728;2022-10-26T07:00:04;35.57;;;16.60;;
17983;SDS011;9117;52.420;20.728;2022-10-26T07:02:34;35.17;;;16.88;;
17983;SDS011;9117;52.420;20.728;2022-10-26T07:05:02;30.83;;;15.32;;
17983;SDS011;9117;52.420;20.728;2022-10-26T07:07:31;38.70;;;15.73;;
17983;SDS011;9117;52.420;20.728;2022-10-26T07:10:00;34.28;;;15.15;;
17983;SDS011;9117;52.420;20.728;2022-10-26T07:12:28;33.35;;;15.60;;
17983;SDS011;9117;52.420;20.728;2022-10-26T07:14:59;33.73;;;15.30;;
17983;SDS011;9117;52.420;20.728;2022-10-26T07:17:27;29.33;;;14.05;;
17983;SDS011;9117;52.420;20.728;2022-10-26T07:19:55;31.33;;;14.30;;
17983;SDS011;9117;52.420;20.728;2022-10-26T07:22:24;28.55;;;13.45;;
17983;SDS011;9117;52.420;20.728;2022-10-26T07:24:51;34.63;;;15.43;;
17983;SDS011;9117;52.420;20.728;2022-10-26T07:27:24;30.83;;;13.60;;
17983;SDS011;9117;52.420;20.728;2022-10-26T07:29:52;26.60;;;12.65;;
17983;SDS011;9117;52.420;20.728;2022-10-26T07:32:21;31.48;;;13.32;;
17983;SDS011;9117;52.420;20.728;2022-10-26T07:34:49;29.08;;;13.43;;
17983;SDS011;9117;52.420;20.728;2022-10-26T07:37:17;29.92;;;14.60;;
17983;SDS011;9117;52.420;20.728;2022-10-26T07:39:45;30.83;;;14.60;;
17983;SDS011;9117;52.420;20.728;2022-10-26T07:42:13;30.13;;;13.45;;
17983;SDS011;9117;52.420;20.728;2022-10-26T07:44:42;31.08;;;14.70;;
17983;SDS011;9117;52.420;20.728;2022-10-26T07:47:10;42.42;;;14.05;;
17983;SDS011;9117;52.420;20.728;2022-10-26T07:49:39;28.83;;;14.05;;
17983;SDS011;9117;52.420;20.728;2022-10-26T07:52:07;32.10;;;14.35;;
17983;SDS011;9117;52.420;20.728;2022-10-26T07:54:36;28.13;;;12.85;;
17983;SDS011;9117;52.420;20.728;2022-10-26T07:57:04;24.88;;;12.60;;
17983;SDS011;9117;52.420;20.728;2022-10-26T07:59:32;28.92;;;12.23;;
17983;SDS011;9117;52.420;20.728;2022-10-26T08:02:00;28.15;;;11.30;;
17983;SDS011;9117;52.420;20.728;2022-10-26T08:04:28;25.30;;;12.35;;
17983;SDS011;9117;52.420;20.728;2022-10-26T08:06:57;24.58;;;12.63;;
17983;SDS011;9117;52.420;20.728;2022-10-26T08:09:25;34.58;;;16.08;;
17983;SDS011;9117;52.420;20.728;2022-10-26T08:11:53;36.33;;;17.13;;
17983;SDS011;9117;52.420;20.728;2022-10-26T08:14:21;39.40;;;15.80;;
17983;SDS011;9117;52.420;20.728;2022-10-26T08:16:49;39.35;;;16.02;;
17983;SDS011;9117;52.420;20.728;2022-10-26T08:19:18;37.42;;;15.48;;
17983;SDS011;9117;52.420;20.728;2022-10-26T08:21:45;39.38;;;15.65;;
17983;SDS011;9117;52.420;20.728;2022-10-26T08:24:15;38.13;;;14.85;;
17983;SDS011;9117;52.420;20.728;2022-10-26T08:26:43;33.35;;;14.13;;
17983;SDS011;9117;52.420;20.728;2022-10-26T08:29:11;40.70;;;14.80;;
17983;SDS011;9117;52.420;20.728;2022-10-26T08:31:39;30.92;;;13.40;;
17983;SDS011;9117;52.420;20.728;2022-10-26T08:34:07;33.30;;;13.90;;
17983;SDS011;9117;52.420;20.728;2022-10-26T08:36:35;29.95;;;13.48;;
17983;SDS011;9117;52.420;20.728;2022-10-26T08:39:03;27.57;;;13.03;;
17983;SDS011;9117;52.420;20.728;2022-10-26T08:41:34;31.75;;;13.20;;
17983;SDS011;9117;52.420;20.728;2022-10-26T08:44:04;28.25;;;11.60;;
17983;SDS011;9117;52.420;20.728;2022-10-26T08:46:43;27.13;;;11.63;;
17983;SDS011;9117;52.420;20.728;2022-10-26T08:49:17;30.57;;;13.13;;
17983;SDS011;9117;52.420;20.728;2022-10-26T08:51:49;24.17;;;11.23;;
17983;SDS011;9117;52.420;20.728;2022-10-26T08:54:21;23.63;;;12.23;;
17983;SDS011;9117;52.420;20.728;2022-10-26T08:56:58;26.93;;;11.53;;
17983;SDS011;9117;52.420;20.728;2022-10-26T08:59:29;33.95;;;15.55;;
17983;SDS011;9117;52.420;20.728;2022-10-26T09:02:07;38.03;;;16.15;;
17983;SDS011;9117;52.420;20.728;2022-10-26T09:04:38;36.97;;;15.77;;
17983;SDS011;9117;52.420;20.728;2022-10-26T09:07:07;34.30;;;15.83;;
17983;SDS011;9117;52.420;20.728;2022-10-26T09:09:45;39.10;;;16.00;;
17983;SDS011;9117;52.420;20.728;2022-10-26T09:12:21;34.10;;;15.38;;
17983;SDS011;9117;52.420;20.728;2022-10-26T09:15:01;29.75;;;13.98;;
17983;SDS011;9117;52.420;20.728;2022-10-26T09:17:40;31.80;;;14.35;;
17983;SDS011;9117;52.420;20.728;2022-10-26T09:20:37;35.67;;;14.97;;
17983;SDS011;9117;52.420;20.728;2022-10-26T09:23:18;41.30;;;14.85;;
17983;SDS011;9117;52.420;20.728;2022-10-26T09:25:56;31.02;;;14.15;;
17983;SDS011;9117;52.420;20.728;2022-10-26T09:28:27;31.15;;;13.75;;
17983;SDS011;9117;52.420;20.728;2022-10-26T09:31:00;38.97;;;16.10;;
17983;SDS011;9117;52.420;20.728;2022-10-26T09:33:29;36.63;;;15.03;;
17983;SDS011;9117;52.420;20.728;2022-10-26T09:36:01;33.13;;;13.30;;
17983;SDS011;9117;52.420;20.728;2022-10-26T09:38:32;33.30;;;15.00;;
17983;SDS011;9117;52.420;20.728;2022-10-26T09:41:04;37.53;;;14.63;;
17983;SDS011;9117;52.420;20.728;2022-10-26T09:43:42;36.80;;;13.73;;
17983;SDS011;9117;52.420;20.728;2022-10-26T09:46:17;30.40;;;13.88;;
17983;SDS011;9117;52.420;20.728;2022-10-26T09:48:50;44.47;;;16.77;;
17983;SDS011;9117;52.420;20.728;2022-10-26T09:51:22;40.87;;;15.50;;
17983;SDS011;9117;52.420;20.728;2022-10-26T09:53:52;42.58;;;15.95;;
17983;SDS011;9117;52.420;20.728;2022-10-26T09:56:22;37.47;;;15.82;;
17983;SDS011;9117;52.420;20.728;2022-10-26T09:58:55;35.05;;;14.35;;
17983;SDS011;9117;52.420;20.728;2022-10-26T10:01:28;35.45;;;14.57;;
17983;SDS011;9117;52.420;20.728;2022-10-26T10:04:07;37.47;;;14.33;;
17983;SDS011;9117;52.420;20.728;2022-10-26T10:06:43;32.97;;;13.02;;
17983;SDS011;9117;52.420;20.728;2022-10-26T10:09:13;36.00;;;13.95;;
17983;SDS011;9117;52.420;20.728;2022-10-26T10:11:43;34.20;;;14.77;;
17983;SDS011;9117;52.420;20.728;2022-10-26T10:14:21;36.67;;;14.60;;
17983;SDS011;9117;52.420;20.728;2022-10-26T10:16:52;31.30;;;13.75;;
17983;SDS011;9117;52.420;20.728;2022-10-26T10:19:22;36.28;;;14.82;;
17983;SDS011;9117;52.420;20.728;2022-10-26T10:21:53;38.22;;;15.07;;
17983;SDS011;9117;52.420;20.728;2022-10-26T10:24:23;34.08;;;14.23;;
17983;SDS011;9117;52.420;20.728;2022-10-26T10:26:55;38.40;;;14.38;;
17983;SDS011;9117;52.420;20.728;2022-10-26T10:29:26;34.58;;;13.80;;
17983;SDS011;9117;52.420;20.728;2022-10-26T10:31:55;39.27;;;13.93;;
17983;SDS011;9117;52.420;20.728;2022-10-26T10:34:25;35.67;;;14.60;;
17983;SDS011;9117;52.420;20.728;2022-10-26T10:36:53;39.28;;;13.43;;
17983;SDS011;9117;52.420;20.728;2022-10-26T10:39:29;32.83;;;13.73;;
17983;SDS011;9117;52.420;20.728;2022-10-26T10:42:02;31.10;;;13.18;;
17983;SDS011;9117;52.420;20.728;2022-10-26T10:44:32;25.33;;;12.35;;
17983;SDS011;9117;52.420;20.728;2022-10-26T10:47:01;26.77;;;12.90;;
17983;SDS011;9117;52.420;20.728;2022-10-26T10:49:31;25.77;;;12.43;;
17983;SDS011;9117;52.420;20.728;2022-10-26T10:52:00;25.30;;;11.38;;
17983;SDS011;9117;52.420;20.728;2022-10-26T10:54:28;25.73;;;11.35;;
17983;SDS011;9117;52.420;20.728;2022-10-26T10:57:01;27.90;;;10.98;;
17983;SDS011;9117;52.420;20.728;2022-10-26T10:59:45;25.25;;;10.80;;
17983;SDS011;9117;52.420;20.728;2022-10-26T11:05:37;29.33;;;12.30;;
17983;SDS011;9117;52.420;20.728;2022-10-26T11:08:18;21.25;;;10.98;;
17983;SDS011;9117;52.420;20.728;2022-10-26T11:10:57;25.58;;;11.40;;
17983;SDS011;9117;52.420;20.728;2022-10-26T11:13:28;20.73;;;10.55;;
17983;SDS011;9117;52.420;20.728;2022-10-26T11:16:02;28.38;;;11.73;;
17983;SDS011;9117;52.420;20.728;2022-10-26T11:18:33;23.77;;;11.35;;
17983;SDS011;9117;52.420;20.728;2022-10-26T11:21:11;25.20;;;10.85;;
17983;SDS011;9117;52.420;20.728;2022-10-26T11:23:46;23.40;;;10.25;;
17983;SDS011;9117;52.420;20.728;2022-10-26T11:26:20;22.48;;;11.13;;
17983;SDS011;9117;52.420;20.728;2022-10-26T11:28:53;24.75;;;11.15;;
17983;SDS011;9117;52.420;20.728;2022-10-26T11:31:27;23.33;;;10.82;;
17983;SDS011;9117;52.420;20.728;2022-10-26T11:34:04;26.27;;;11.35;;
17983;SDS011;9117;52.420;20.728;2022-10-26T11:36:39;26.58;;;11.48;;
17983;SDS011;9117;52.420;20.728;2022-10-26T11:39:11;24.55;;;11.57;;
17983;SDS011;9117;52.420;20.728;2022-10-26T11:41:46;23.40;;;10.18;;
17983;SDS011;9117;52.420;20.728;2022-10-26T11:44:18;24.95;;;13.13;;
17983;SDS011;9117;52.420;20.728;2022-10-26T11:46:54;28.73;;;10.32;;
17983;SDS011;9117;52.420;20.728;2022-10-26T11:49:25;20.63;;;10.25;;
17983;SDS011;9117;52.420;20.728;2022-10-26T11:51:58;26.83;;;10.63;;
17983;SDS011;9117;52.420;20.728;2022-10-26T11:54:36;19.08;;;10.18;;
17983;SDS011;9117;52.420;20.728;2022-10-26T11:57:10;21.27;;;10.48;;
17983;SDS011;9117;52.420;20.728;2022-10-26T11:59:40;20.85;;;11.13;;
17983;SDS011;9117;52.420;20.728;2022-10-26T12:02:15;24.75;;;11.15;;
17983;SDS011;9117;52.420;20.728;2022-10-26T12:04:48;22.17;;;11.98;;
17983;SDS011;9117;52.420;20.728;2022-10-26T12:07:21;26.60;;;12.18;;
17983;SDS011;9117;52.420;20.728;2022-10-26T12:09:53;24.23;;;12.02;;
17983;SDS011;9117;52.420;20.728;2022-10-26T12:12:24;24.25;;;12.75;;
17983;SDS011;9117;52.420;20.728;2022-10-26T12:15:04;28.05;;;12.02;;
17983;SDS011;9117;52.420;20.728;2022-10-26T12:17:45;20.17;;;11.27;;
17983;SDS011;9117;52.420;20.728;2022-10-26T12:20:38;30.48;;;12.85;;
17983;SDS011;9117;52.420;20.728;2022-10-26T12:23:18;21.70;;;11.43;;
17983;SDS011;9117;52.420;20.728;2022-10-26T12:29:30;24.98;;;11.65;;
17983;SDS011;9117;52.420;20.728;2022-10-26T12:41:18;26.20;;;12.25;;
17983;SDS011;9117;52.420;20.728;2022-10-26T12:43:57;23.73;;;12.05;;
17983;SDS011;9117;52.420;20.728;2022-10-26T12:46:38;29.77;;;12.90;;
17983;SDS011;9117;52.420;20.728;2022-10-26T12:52:19;27.90;;;12.23;;
17983;SDS011;9117;52.420;20.728;2022-10-26T12:54:54;24.65;;;13.88;;
17983;SDS011;9117;52.420;20.728;2022-10-26T12:57:42;25.05;;;12.93;;
17983;SDS011;9117;52.420;20.728;2022-10-26T13:00:17;28.98;;;13.75;;
17983;SDS011;9117;52.420;20.728;2022-10-26T13:02:53;27.50;;;12.98;;
17983;SDS011;9117;52.420;20.728;2022-10-26T13:05:40;27.67;;;12.70;;
17983;SDS011;9117;52.420;20.728;2022-10-26T13:08:44;28.83;;;13.43;;
17983;SDS011;9117;52.420;20.728;2022-10-26T13:11:16;29.30;;;12.93;;
17983;SDS011;9117;52.420;20.728;2022-10-26T13:13:51;25.13;;;12.95;;
17983;SDS011;9117;52.420;20.728;2022-10-26T13:16:20;28.05;;;13.18;;
17983;SDS011;9117;52.420;20.728;2022-10-26T13:18:51;25.27;;;12.82;;
17983;SDS011;9117;52.420;20.728;2022-10-26T13:21:19;27.73;;;13.68;;
17983;SDS011;9117;52.420;20.728;2022-10-26T13:23:56;25.35;;;12.68;;
17983;SDS011;9117;52.420;20.728;2022-10-26T13:26:28;30.00;;;13.57;;
17983;SDS011;9117;52.420;20.728;2022-10-26T13:28:58;27.27;;;12.15;;
17983;SDS011;9117;52.420;20.728;2022-10-26T13:34:24;20.30;;;10.95;;
17983;SDS011;9117;52.420;20.728;2022-10-26T13:36:58;23.75;;;11.23;;
17983;SDS011;9117;52.420;20.728;2022-10-26T13:39:34;23.42;;;10.38;;
17983;SDS011;9117;52.420;20.728;2022-10-26T13:42:04;24.55;;;10.68;;
17983;SDS011;9117;52.420;20.728;2022-10-26T13:44:35;21.77;;;11.52;;
17983;SDS011;9117;52.420;20.728;2022-10-26T13:47:07;25.10;;;11.80;;
17983;SDS011;9117;52.420;20.728;2022-10-26T13:49:39;20.73;;;11.35;;
17983;SDS011;9117;52.420;20.728;2022-10-26T13:52:12;26.58;;;11.50;;
17983;SDS011;9117;52.420;20.728;2022-10-26T13:54:44;22.15;;;10.85;;
17983;SDS011;9117;52.420;20.728;2022-10-26T13:57:15;20.70;;;10.95;;
17983;SDS011;9117;52.420;20.728;2022-10-26T13:59:46;25.23;;;11.85;;
17983;SDS011;9117;52.420;20.728;2022-10-26T14:02:16;23.55;;;12.13;;
17983;SDS011;9117;52.420;20.728;2022-10-26T14:04:45;23.55;;;12.18;;
17983;SDS011;9117;52.420;20.728;2022-10-26T14:07:15;26.13;;;13.55;;
17983;SDS011;9117;52.420;20.728;2022-10-26T14:09:52;29.70;;;14.43;;
17983;SDS011;9117;52.420;20.728;2022-10-26T14:12:22;29.02;;;14.65;;
17983;SDS011;9117;52.420;20.728;2022-10-26T14:14:54;29.27;;;15.23;;
17983;SDS011;9117;52.420;20.728;2022-10-26T14:17:27;29.00;;;14.15;;
17983;SDS011;9117;52.420;20.728;2022-10-26T14:19:55;24.23;;;12.45;;
17983;SDS011;9117;52.420;20.728;2022-10-26T14:22:24;27.30;;;13.20;;
17983;SDS011;9117;52.420;20.728;2022-10-26T14:24:56;24.85;;;13.00;;
17983;SDS011;9117;52.420;20.728;2022-10-26T14:27:26;28.33;;;13.40;;
17983;SDS011;9117;52.420;20.728;2022-10-26T14:29:58;28.08;;;13.60;;
17983;SDS011;9117;52.420;20.728;2022-10-26T14:32:46;29.65;;;12.90;;
17983;SDS011;9117;52.420;20.728;2022-10-26T14:35:15;28.98;;;15.13;;
17983;SDS011;9117;52.420;20.728;2022-10-26T14:37:44;26.08;;;13.95;;
17983;SDS011;9117;52.420;20.728;2022-10-26T14:40:18;24.67;;;12.65;;
17983;SDS011;9117;52.420;20.728;2022-10-26T14:42:48;30.63;;;13.10;;
17983;SDS011;9117;52.420;20.728;2022-10-26T14:45:23;30.27;;;15.18;;
17983;SDS011;9117;52.420;20.728;2022-10-26T14:48:18;34.15;;;16.33;;
17983;SDS011;9117;52.420;20.728;2022-10-26T14:50:58;28.70;;;13.18;;
17983;SDS011;9117;52.420;20.728;2022-10-26T14:53:29;23.60;;;12.38;;
17983;SDS011;9117;52.420;20.728;2022-10-26T14:56:03;27.42;;;12.75;;
17983;SDS011;9117;52.420;20.728;2022-10-26T14:58:43;23.58;;;12.85;;
17983;SDS011;9117;52.420;20.728;2022-10-26T15:01:30;23.45;;;12.50;;
17983;SDS011;9117;52.420;20.728;2022-10-26T15:04:02;23.15;;;12.27;;
17983;SDS011;9117;52.420;20.728;2022-10-26T15:06:37;25.67;;;12.40;;
17983;SDS011;9117;52.420;20.728;2022-10-26T15:09:29;25.85;;;12.98;;
17983;SDS011;9117;52.420;20.728;2022-10-26T15:12:00;24.17;;;12.15;;
17983;SDS011;9117;52.420;20.728;2022-10-26T15:14:31;26.48;;;12.07;;
17983;SDS011;9117;52.420;20.728;2022-10-26T15:17:00;22.20;;;11.60;;